x

Ne Bahamas - 350 Nm Ene Of Nassau, Bahamas (41047) Wave Buoy

12:50pm - Tue 30th Sep 2014 All times are UTC.

  • Sig Wave height 3.0ft
  • Swell Direction
  • Peak Period 8s
  • Average Period 6s
  • Wind
    4mph, 7mph gusts
  • Sea Temp 83°f
  • Air Temp 81°f
  • Sea Pressure 1012.7mb

More Historic Weather Station data

Upgrade to MSW Pro to gain access to the past 30 days of data for over 8000 Wavebouys and Weather Stations around the globe.

Join Pro

Comparision Forecast

View Surf forecast
   
Tue 09/30 12:50pm 3ft 8s 6s 4 7 mph 1012.7mb 83f 81f
11:50am 3ft 7s 6s 4
mph
1012.5mb 83f 81f
10:50am 3ft 8s 6s 2 4 mph 1012.1mb 83f 81f
9:50am 3ft 8s 6s  -  2 mph 1012.1mb 83f 81f
8:50am 3ft 8s 6s 2 4 mph 1011.8mb 83f 81f
7:50am 3ft 8s 6s 4
mph
1011.7mb 83f 81f
6:50am 3ft 8s 6s  -  2 mph 1011.7mb 83f 81f
5:50am 3ft 8s 6s  -  mph 1012.1mb 83f 81f
4:50am 3.5ft 7s 6s 4
mph
1012.6mb 83f 81f
3:50am 3.5ft 8s 6s 4 7 mph 1012.8mb 83f 81f
2:50am 3ft 8s 6s 4 7 mph 1013.1mb 83f 81f
1:50am 3.5ft 8s 6s 7
mph
1013mb 83f 82f
12:50am 3.5ft 8s 7s 7
mph
1013.1mb 84f 82f
Mon 09/29 11:50pm 3.5ft 8s 6s 4 7 mph 1012.7mb 84f 82f
10:50pm 3.5ft 8s 6s 4 7 mph 1012.5mb 84f 81f
9:50pm 3.5ft 8s 7s 4 7 mph 1012.3mb 84f 81f
8:50pm 3ft 8s 6s 7 9 mph 1012.1mb 84f 81f
7:50pm 3.5ft 8s 7s 7
mph
1012.2mb 84f 81f
6:50pm 3.5ft 8s 6s 4 7 mph 1012.7mb 84f 82f
5:50pm 3.5ft 8s 6s 7
mph
1013.1mb 84f 81f
4:50pm 4ft 8s 6s 7
mph
1013.9mb 84f 81f
3:50pm 4.5ft 8s 7s 4 7 mph 1014.3mb 84f 81f
2:50pm 4.5ft 8s 6s 7 9 mph 1014.1mb 83f 81f
1:50pm 4ft 8s 6s 4 7 mph 1014.3mb 83f 81f
12:50pm 4.5ft 8s 7s 4 7 mph 1014.2mb 83f 81f
11:50am 4ft 8s 6s 4 7 mph 1014mb 83f 81f
10:50am 4.5ft 8s 7s 4
mph
1013.8mb 83f 81f
9:50am 4.5ft 8s 7s 4 7 mph 1013.3mb 83f 81f
8:50am 4ft 9s 7s 4 7 mph 1013mb 83f 81f
7:50am 4.5ft 8s 7s 4 7 mph 1013.1mb 83f 81f
6:50am 4.5ft 9s 7s 4 7 mph 1013.5mb 83f 81f
5:50am 4ft 8s 7s 4 7 mph 1014.1mb 83f 81f
4:50am 4ft 9s 7s 4 7 mph 1014.5mb 83f 81f
3:50am 4ft 9s 7s 4 7 mph 1014.8mb 83f 81f
2:50am 4.5ft 9s 7s 13 18 mph 1015mb 83f 80f
1:50am 4ft 9s 7s 9 11 mph 1014.8mb 83f 82f
12:50am 4.5ft 9s 7s 9 11 mph 1014.6mb 84f 82f
Sun 09/28 11:50pm 4.5ft 9s 7s 11 13 mph 1014.3mb 84f 82f
10:50pm 4.5ft 9s 7s 9 11 mph 1014.3mb 84f 82f
9:50pm 4ft 9s 7s 11 13 mph 1014.2mb 84f 82f
8:50pm 4.5ft 10s 7s 11 13 mph 1014mb 84f 82f
7:50pm 4.5ft 9s 7s 4 7 mph 1014.4mb 84f 82f
6:50pm 5ft 10s 7s 7
mph
1014.9mb 84f 82f
5:50pm 5ft 8s 7s 4 7 mph 1015.4mb 84f 82f
4:50pm 4.5ft 10s 7s 7 9 mph 1016.1mb 84f 82f
3:50pm 4.5ft 9s 7s 7
mph
1016.5mb 83f 82f
2:50pm 5ft 10s 7s 7 9 mph 1016.8mb 83f 82f
1:50pm 5ft 9s 7s 9 11 mph 1016.5mb 83f 82f
12:50pm 4.5ft 9s 7s 9 11 mph 1016.3mb 83f 82f
11:50am 4.5ft 8s 7s 9 11 mph 1016mb 83f 82f
10:50am 4.5ft 9s 7s 7 9 mph 1015.6mb 83f 81f
9:50am 4.5ft 9s 7s 9 11 mph 1015.4mb 83f 81f
8:50am 4.5ft 9s 6s 7 9 mph 1015.3mb 83f 81f
7:50am 4ft 9s 6s 9 11 mph 1015mb 83f 81f
6:50am 4.5ft 8s 6s 9 11 mph 1015.4mb 83f 82f
5:50am 4.5ft 10s 6s 9 11 mph 1015.6mb 83f 82f
4:50am 4ft 10s 6s 11 13 mph 1015.7mb 83f 82f
3:50am 4ft 10s 6s 11 13 mph 1016mb 83f 82f
2:50am 4.5ft 9s 6s 11 13 mph 1016.1mb 83f 82f
1:50am 4ft 7s 6s 11 13 mph 1015.8mb 83f 82f
12:50am 4.5ft 8s 6s 11 13 mph 1015.5mb 83f 82f
Sat 09/27 11:50pm 4ft 9s 6s 11 13 mph 1015.3mb 83f 82f
10:50pm 3.5ft 7s 6s 9 11 mph 1015.1mb 83f 82f
9:50pm 4.5ft 9s 7s 9 11 mph 1015mb 83f 82f
8:50pm 4ft 8s 6s 9
mph
1015.1mb 84f 82f
7:50pm 4ft 8s 6s 7 9 mph 1015.4mb 84f 82f
6:50pm 4ft 8s 6s 9 11 mph 1015.7mb 84f 82f
5:50pm 4ft 9s 6s 9 11 mph 1015.9mb 83f 82f
4:50pm 4.5ft 8s 6s 9 11 mph 1016.4mb 83f 82f
3:50pm 4ft 8s 6s 9 11 mph 1016.8mb 83f 82f
2:50pm 4ft 8s 6s 9 11 mph 1016.9mb 83f 82f
1:50pm 4.5ft 8s 6s 9 11 mph 1016.7mb 83f 82f
12:50pm 4ft 8s 6s 9 11 mph 1016.8mb 83f 82f
11:50am 4ft 8s 6s 9 11 mph 1016.3mb 83f 82f
10:50am 4.5ft 9s 6s 11
mph
1015.8mb 83f 81f
9:50am 4.5ft 9s 6s 9 11 mph 1015.6mb 83f 81f
8:50am 4ft 8s 6s 9 11 mph 1015.3mb 83f 81f
7:50am 4.5ft 7s 6s 9 11 mph 1015.3mb 83f 81f
6:50am 4.5ft 7s 6s 9 11 mph 1015.6mb 83f 81f
5:50am 4.5ft 8s 6s 9 11 mph 1015.9mb 83f 81f
4:50am 4.5ft 7s 6s 11 13 mph 1016.1mb 83f 82f
3:50am 4.5ft 8s 6s 11 13 mph 1016.3mb 83f 82f
2:50am 4.5ft 8s 6s 13 16 mph 1016.6mb 83f 82f
1:50am 4.5ft 8s 6s 11 16 mph 1016.7mb 83f 82f
12:50am 4ft 7s 6s 11 16 mph 1016.3mb 83f 82f
Fri 09/26 11:50pm 4.5ft 8s 6s 13
mph
1015.8mb 83f 82f
10:50pm 4.5ft 8s 6s 13 16 mph 1015.6mb 83f 82f
9:50pm 5ft 8s 6s 9 11 mph 1015.3mb 83f 81f
8:50pm 4ft 8s 6s 11 13 mph 1015.5mb 83f 82f
7:50pm 4.5ft 8s 6s 11
mph
1015.4mb 83f 82f
6:50pm 5ft 8s 6s 11 13 mph 1015.8mb 83f 82f
5:50pm 5ft 8s 6s 11 16 mph 1016.1mb 83f 82f
4:50pm 4.5ft 7s 6s 13 16 mph 1016.7mb 83f 82f
3:50pm 4.5ft 8s 6s 13 16 mph 1017.2mb 83f 82f
2:50pm 4.5ft 8s 6s 13 16 mph 1017.4mb 83f 82f